Time;durP1;ratioP1;P1;durP2;ratioP2;P2;SDS_P1;SDS_P2;PMS_P1;PMS_P2;Temp;Humidity;BMP_temperature;BMP_pressure;BME280_temperature;BME280_humidity;BME280_pressure;Samples;Min_cycle;Max_cycle;Signal;HPM_P1;HPM_P2
2023/04/02 00:00:17;;;;;;;1.90;1.80;;;7.80;50.60;;;;;;5054042;28;20470;-54
2023/04/02 00:02:47;;;;;;;3.42;1.20;;;7.80;57.20;;;;;;5054108;28;20021;-55
2023/04/02 00:05:17;;;;;;;2.45;1.58;;;7.80;56.90;;;;;;5054269;28;20021;-57
2023/04/02 00:07:47;;;;;;;3.63;1.70;;;7.80;53.70;;;;;;5054228;28;20048;-58
2023/04/02 00:10:31;;;;;;;3.13;1.50;;;7.70;55.30;;;;;;5053855;28;20025;-56
2023/04/02 00:13:08;;;;;;;1.55;1.50;;;7.70;58.20;;;;;;5052761;28;20045;-52
2023/04/02 00:15:36;;;;;;;1.50;1.40;;;7.80;47.90;;;;;;5053943;28;20036;-57
2023/04/02 00:18:03;;;;;;;1.77;1.58;;;7.80;47.10;;;;;;5053955;28;20345;-51
2023/04/02 00:20:33;;;;;;;1.73;1.60;;;7.90;41.80;;;;;;5053901;28;20039;-58
2023/04/02 00:22:59;;;;;;;2.08;1.30;;;7.90;36.70;;;;;;5053625;28;20049;-57
2023/04/02 00:25:29;;;;;;;1.52;1.42;;;7.90;31.40;;;;;;5053784;28;20060;-50
2023/04/02 00:27:56;;;;;;;1.50;1.40;;;8.00;18.80;;;;;;5053663;28;20055;-57
2023/04/02 00:30:22;;;;;;;1.70;1.60;;;8.00;26.80;;;;;;5053627;28;20372;-55
2023/04/02 00:32:48;;;;;;;1.60;1.50;;;8.00;19.90;;;;;;5053599;28;20439;-58
2023/04/02 00:38:35;;;;;;;1.50;1.40;;;8.10;13.70;;;;;;5053636;28;20083;-54
2023/04/02 00:41:05;;;;;;;1.30;1.30;;;8.00;12.10;;;;;;5053570;28;20104;-53
2023/04/02 00:43:35;;;;;;;1.63;1.50;;;8.10;8.20;;;;;;5053489;28;20055;-56
2023/04/02 00:46:09;;;;;;;1.50;1.40;;;8.10;7.90;;;;;;5053473;28;20025;-56
2023/04/02 00:48:48;;;;;;;1.70;1.50;;;8.10;8.40;;;;;;5053391;28;20440;-55
2023/04/02 00:51:28;;;;;;;1.50;1.40;;;8.00;11.90;;;;;;5053333;28;20021;-56
2023/04/02 00:53:57;;;;;;;4.32;1.52;;;8.10;22.40;;;;;;5052885;28;20028;-52
2023/04/02 00:56:31;;;;;;;2.22;1.63;;;8.10;23.80;;;;;;5053082;28;20479;-57
2023/04/02 00:58:57;;;;;;;2.78;1.70;;;8.00;38.20;;;;;;5053053;28;20029;-52
2023/04/02 01:01:26;;;;;;;1.70;1.60;;;7.90;40.70;;;;;;5053099;28;20029;-59
2023/04/02 01:04:04;;;;;;;1.88;1.63;;;7.90;44.70;;;;;;5052658;28;20021;-55
2023/04/02 01:06:36;;;;;;;1.70;1.60;;;7.90;47.50;;;;;;5053024;28;20025;-56
2023/04/02 01:09:20;;;;;;;1.98;1.50;;;7.80;53.20;;;;;;5052755;28;20032;-56
2023/04/02 01:12:07;;;;;;;2.38;1.50;;;7.70;61.30;;;;;;5052753;28;20084;-55
2023/04/02 01:14:58;;;;;;;1.50;1.40;;;7.80;60.80;;;;;;5052887;28;20384;-56
2023/04/02 01:17:41;;;;;;;1.33;1.30;;;7.80;61.10;;;;;;5053203;28;20029;-55
2023/04/02 01:20:38;;;;;;;2.70;2.00;;;7.70;64.30;;;;;;5052660;28;20048;-55
2023/04/02 01:23:09;;;;;;;1.50;1.40;;;7.60;67.20;;;;;;5052254;28;20072;-54
2023/04/02 01:25:49;;;;;;;1.30;1.23;;;7.50;69.50;;;;;;5051137;28;20112;-54
2023/04/02 01:28:21;;;;;;;1.50;1.40;;;7.50;71.20;;;;;;5052547;28;20467;-53
2023/04/02 01:30:51;;;;;;;4.97;1.73;;;7.50;74.40;;;;;;5052475;28;20029;-58
2023/04/02 01:33:22;;;;;;;1.60;1.50;;;7.40;77.50;;;;;;5052528;28;20061;-58
2023/04/02 01:36:10;;;;;;;1.60;1.50;;;7.50;77.90;;;;;;5052284;28;20020;-52
2023/04/02 01:39:11;;;;;;;2.13;1.92;;;7.50;81.80;;;;;;5052381;28;20032;-53
2023/04/02 01:42:04;;;;;;;1.38;1.30;;;7.60;82.60;;;;;;5052508;28;20045;-55
2023/04/02 01:45:02;;;;;;;1.50;1.40;;;7.50;84.20;;;;;;5052218;28;20111;-56
2023/04/02 01:47:28;;;;;;;1.60;1.50;;;7.50;86.60;;;;;;5051828;28;20040;-55
2023/04/02 01:50:08;;;;;;;1.50;1.40;;;7.40;88.10;;;;;;5050776;28;20017;-57
2023/04/02 01:52:40;;;;;;;1.85;1.40;;;7.40;88.50;;;;;;5052043;28;20013;-54
2023/04/02 01:55:07;;;;;;;1.52;1.20;;;7.40;89.00;;;;;;5052040;28;20070;-55
2023/04/02 01:57:33;;;;;;;2.10;1.35;;;7.40;86.50;;;;;;5052124;28;20471;-58
2023/04/02 02:00:00;;;;;;;1.50;1.40;;;7.40;85.00;;;;;;5051915;28;20028;-52
2023/04/02 02:02:26;;;;;;;1.55;1.45;;;7.50;85.60;;;;;;5050498;28;20025;-55
2023/04/02 02:04:53;;;;;;;3.42;1.52;;;7.50;84.20;;;;;;5051948;28;20112;-57
2023/04/02 02:07:20;;;;;;;1.85;1.50;;;7.50;85.30;;;;;;5050656;28;20084;-56
2023/04/02 02:09:47;;;;;;;1.50;1.40;;;7.40;85.70;;;;;;5051813;28;20059;-54
2023/04/02 02:12:14;;;;;;;1.27;1.20;;;7.40;87.70;;;;;;5051563;28;20049;-53
2023/04/02 02:14:47;;;;;;;1.45;1.35;;;7.30;88.80;;;;;;5051921;28;20036;-55
2023/04/02 02:17:29;;;;;;;6.40;1.73;;;7.20;90.40;;;;;;5051718;28;20108;-56
2023/04/02 02:19:58;;;;;;;1.50;1.40;;;7.30;90.30;;;;;;5051459;28;20021;-57
2023/04/02 02:22:45;;;;;;;1.95;1.50;;;7.30;89.50;;;;;;5051674;28;20472;-55
2023/04/02 02:25:24;;;;;;;1.92;1.60;;;7.40;84.70;;;;;;5051541;28;20108;-58
2023/04/02 02:28:12;;;;;;;1.60;1.38;;;7.40;84.60;;;;;;5051363;28;20603;-54
2023/04/02 02:30:49;;;;;;;1.60;1.50;;;7.40;81.00;;;;;;5051749;28;20415;-53
2023/04/02 02:33:27;;;;;;;4.18;3.03;;;7.40;73.80;;;;;;5051556;28;20021;-56
2023/04/02 02:36:04;;;;;;;2.65;1.75;;;7.40;72.10;;;;;;5050913;28;20082;-56
2023/04/02 02:38:32;;;;;;;1.60;1.50;;;7.40;76.60;;;;;;5051415;28;20060;-55
2023/04/02 02:41:10;;;;;;;1.50;1.42;;;7.40;75.20;;;;;;5050179;28;20024;-57
2023/04/02 02:43:40;;;;;;;2.05;1.75;;;7.40;76.40;;;;;;5051360;28;20107;-55
2023/04/02 02:46:10;;;;;;;1.88;1.35;;;7.40;74.50;;;;;;5051336;28;20025;-55
2023/04/02 02:48:39;;;;;;;2.45;1.55;;;7.30;74.00;;;;;;5051472;28;20078;-55
2023/04/02 02:51:09;;;;;;;1.90;1.40;;;7.40;70.30;;;;;;5049958;28;20019;-56
2023/04/02 02:53:46;;;;;;;1.48;1.48;;;7.50;66.60;;;;;;5051203;28;20032;-54
2023/04/02 02:56:13;;;;;;;2.30;1.70;;;7.50;68.00;;;;;;5051189;28;20029;-54
2023/04/02 02:58:38;;;;;;;3.10;1.40;;;7.40;71.20;;;;;;5050846;28;20025;-54
2023/04/02 03:01:05;;;;;;;2.40;1.42;;;7.40;69.10;;;;;;5050676;28;20029;-54
2023/04/02 03:03:33;;;;;;;1.88;1.50;;;7.40;66.30;;;;;;5050542;28;20028;-55
2023/04/02 03:06:09;;;;;;;5.72;1.70;;;7.50;65.00;;;;;;5050430;28;20096;-53
2023/04/02 03:08:47;;;;;;;2.47;1.60;;;7.40;66.10;;;;;;5051199;28;20025;-49
2023/04/02 03:11:42;;;;;;;4.82;1.60;;;7.50;66.80;;;;;;5050293;28;20021;-55
2023/04/02 03:14:52;;;;;;;1.55;1.40;;;7.50;65.90;;;;;;5049777;28;20638;-55
2023/04/02 03:17:44;;;;;;;1.50;1.40;;;7.40;64.20;;;;;;5050289;28;20064;-55
2023/04/02 03:20:29;;;;;;;1.60;1.50;;;7.50;69.20;;;;;;5049066;28;20103;-52
2023/04/02 03:23:14;;;;;;;1.40;1.40;;;7.40;66.50;;;;;;5050866;28;20094;-52
2023/04/02 03:26:00;;;;;;;1.35;1.25;;;7.40;66.50;;;;;;5049790;28;20449;-54
2023/04/02 03:28:33;;;;;;;1.45;1.40;;;7.40;64.20;;;;;;5051004;28;20396;-51
2023/04/02 03:31:18;;;;;;;1.67;1.40;;;7.40;68.70;;;;;;5050780;28;20013;-54
2023/04/02 03:33:53;;;;;;;1.50;1.40;;;7.40;67.80;;;;;;5049655;28;20028;-53
2023/04/02 03:36:22;;;;;;;1.48;1.38;;;7.40;69.30;;;;;;5051025;28;20061;-56
2023/04/02 03:39:07;;;;;;;4.15;1.40;;;7.40;69.60;;;;;;5050869;28;20031;-56
2023/04/02 03:41:45;;;;;;;1.40;1.40;;;7.30;68.10;;;;;;5050811;28;20032;-51
2023/04/02 03:44:27;;;;;;;4.00;1.45;;;7.30;69.30;;;;;;5050700;28;20083;-55
2023/04/02 03:47:03;;;;;;;2.15;1.65;;;7.30;72.20;;;;;;5050567;28;20511;-58
2023/04/02 03:49:37;;;;;;;1.60;1.50;;;7.40;70.60;;;;;;5053205;28;20441;-54
2023/04/02 03:52:10;;;;;;;1.40;1.30;;;7.30;71.60;;;;;;5054067;28;20128;-53
2023/04/02 03:54:37;;;;;;;3.28;1.80;;;7.40;68.50;;;;;;5054125;28;20029;-54
2023/04/02 03:57:03;;;;;;;1.95;1.58;;;7.40;66.30;;;;;;5054201;28;20036;-53
2023/04/02 03:59:49;;;;;;;2.28;1.40;;;7.40;63.60;;;;;;5054267;28;20032;-52
2023/04/02 04:02:33;;;;;;;1.60;1.40;;;7.40;53.70;;;;;;5054169;28;20047;-53
2023/04/02 04:05:02;;;;;;;1.50;1.40;;;7.50;53.50;;;;;;5054057;28;20024;-52
2023/04/02 04:07:32;;;;;;;1.50;1.40;;;7.50;50.00;;;;;;5054002;28;20080;-56
2023/04/02 04:09:59;;;;;;;1.33;1.33;;;7.50;51.10;;;;;;5052855;28;20423;-58
2023/04/02 04:12:45;;;;;;;2.15;1.48;;;7.50;47.40;;;;;;5053675;28;20690;-56
2023/04/02 04:16:03;;;;;;;1.70;1.60;;;7.60;51.40;;;;;;5053490;28;20025;-53
2023/04/02 04:18:43;;;;;;;1.38;1.38;;;7.60;45.10;;;;;;5050972;28;20017;-56
2023/04/02 04:21:29;;;;;;;1.65;1.55;;;7.60;44.90;;;;;;5050738;28;20022;-56
2023/04/02 04:24:02;;;;;;;1.88;1.70;;;7.60;38.90;;;;;;5053117;28;20037;-52
2023/04/02 04:27:03;;;;;;;1.87;1.73;;;7.60;38.50;;;;;;5053828;28;20017;-55
2023/04/02 04:30:04;;;;;;;1.40;1.30;;;7.60;39.30;;;;;;5053767;28;20263;-58
2023/04/02 04:32:48;;;;;;;2.15;1.40;;;7.60;33.10;;;;;;5053728;28;20099;-55
2023/04/02 04:35:26;;;;;;;2.85;1.50;;;7.60;39.10;;;;;;5053566;28;20047;-54
2023/04/02 04:38:20;;;;;;;1.30;1.30;;;7.60;35.30;;;;;;5053443;28;20023;-54
2023/04/02 04:40:52;;;;;;;2.17;1.33;;;7.70;24.40;;;;;;5052963;28;20036;-54
2023/04/02 04:43:53;;;;;;;1.42;1.33;;;7.70;34.20;;;;;;5053355;28;20028;-57
2023/04/02 04:46:36;;;;;;;1.60;1.50;;;7.70;24.30;;;;;;5052312;28;20349;-54
2023/04/02 04:49:31;;;;;;;2.17;1.70;;;7.70;10.80;;;;;;5053566;28;20037;-56
2023/04/02 04:52:21;;;;;;;1.83;1.70;;;7.80;18.00;;;;;;5053015;28;20043;-53
2023/04/02 04:54:46;;;;;;;2.30;1.83;;;7.80;19.50;;;;;;5053341;28;20056;-57
2023/04/02 04:57:35;;;;;;;2.63;1.58;;;7.70;21.00;;;;;;5053219;28;20126;-56
2023/04/02 05:00:24;;;;;;;1.30;1.20;;;7.70;23.10;;;;;;5052515;28;20023;-50
2023/04/02 05:02:58;;;;;;;1.63;1.40;;;7.80;22.20;;;;;;5052779;28;20032;-53
2023/04/02 05:05:29;;;;;;;;;;;7.80;16.30;;;;;;5053776;28;20644;-52
2023/04/02 05:08:05;;;;;;;9.18;1.52;;;7.80;15.50;;;;;;5052878;28;19904;-53
2023/04/02 05:10:41;;;;;;;2.38;1.30;;;7.70;19.40;;;;;;5052868;28;20365;-51
2023/04/02 05:13:28;;;;;;;3.38;1.40;;;7.90;26.20;;;;;;5052682;28;20053;-54
2023/04/02 05:16:16;;;;;;;2.65;1.60;;;7.90;23.30;;;;;;5052787;28;20025;-58
2023/04/02 05:19:16;;;;;;;2.70;1.65;;;7.80;23.40;;;;;;5052686;28;20029;-55
2023/04/02 05:21:46;;;;;;;3.35;1.40;;;7.90;25.20;;;;;;5052482;28;20048;-53
2023/04/02 05:24:42;;;;;;;1.42;1.33;;;7.90;23.40;;;;;;5052072;28;20028;-53
2023/04/02 05:27:30;;;;;;;2.95;1.65;;;7.90;18.10;;;;;;5052550;28;20013;-54
2023/04/02 05:30:22;;;;;;;1.50;1.40;;;7.80;26.70;;;;;;5052058;28;20100;-55
2023/04/02 05:32:58;;;;;;;3.92;2.35;;;7.80;26.30;;;;;;5050925;28;20033;-59
2023/04/02 05:35:31;;;;;;;1.85;1.65;;;7.80;27.50;;;;;;5051983;28;20025;-50
2023/04/02 05:37:57;;;;;;;1.63;1.52;;;7.70;45.20;;;;;;5051836;28;20025;-55
2023/04/02 05:40:32;;;;;;;1.58;1.38;;;7.70;45.00;;;;;;5051758;28;20024;-52
2023/04/02 05:43:01;;;;;;;2.80;2.00;;;7.80;50.40;;;;;;5051460;28;20491;-54
2023/04/02 05:45:38;;;;;;;1.70;1.60;;;7.70;51.90;;;;;;5051625;28;20025;-54
2023/04/02 05:48:22;;;;;;;1.90;1.58;;;7.80;60.10;;;;;;5052035;28;20034;-56
2023/04/02 05:50:52;;;;;;;3.90;1.70;;;7.70;51.20;;;;;;5052016;28;20025;-53
2023/04/02 05:53:20;;;;;;;5.90;1.70;;;7.70;56.20;;;;;;5052313;28;20604;-55
2023/04/02 05:56:24;;;;;;;2.38;2.17;;;7.80;58.10;;;;;;5052125;28;20025;-58
2023/04/02 05:58:59;;;;;;;1.90;1.80;;;7.70;56.70;;;;;;5050754;28;20037;-51
2023/04/02 06:01:32;;;;;;;3.17;1.52;;;7.60;63.80;;;;;;5052010;28;20354;-54
2023/04/02 06:04:14;;;;;;;2.47;2.13;;;7.70;66.00;;;;;;5051708;28;20028;-54
2023/04/02 06:06:43;;;;;;;2.75;1.98;;;7.60;67.40;;;;;;5051837;28;20029;-56
2023/04/02 06:09:32;;;;;;;1.73;1.58;;;7.50;71.40;;;;;;5051648;28;20116;-59
2023/04/02 06:12:14;;;;;;;2.92;2.28;;;7.50;73.20;;;;;;5050683;28;20387;-52
2023/04/02 06:14:40;;;;;;;2.08;1.90;;;7.50;79.40;;;;;;5051902;28;20025;-54
2023/04/02 06:17:05;;;;;;;2.78;1.90;;;7.50;80.10;;;;;;5050346;28;20031;-51
2023/04/02 06:19:37;;;;;;;2.30;2.13;;;7.50;83.70;;;;;;5051642;28;20068;-57
2023/04/02 06:22:34;;;;;;;2.72;2.00;;;7.50;86.30;;;;;;5051591;28;20053;-51
2023/04/02 06:25:22;;;;;;;5.03;1.80;;;7.40;88.00;;;;;;5051312;28;20055;-55
2023/04/02 06:27:50;;;;;;;2.55;1.63;;;7.30;88.80;;;;;;5051516;28;20053;-54
2023/04/02 06:30:26;;;;;;;2.30;2.10;;;7.40;90.60;;;;;;5051425;28;20017;-55
2023/04/02 06:32:52;;;;;;;1.80;1.65;;;7.50;91.10;;;;;;5051059;28;20025;-54
2023/04/02 06:35:18;;;;;;;4.70;1.95;;;7.50;90.90;;;;;;5051351;28;20079;-58
2023/04/02 06:37:46;;;;;;;2.65;1.92;;;7.50;91.80;;;;;;5051558;28;20037;-57
2023/04/02 06:40:33;;;;;;;4.05;1.90;;;7.60;92.60;;;;;;5049533;28;20021;-55
2023/04/02 06:43:02;;;;;;;1.85;1.60;;;7.50;91.10;;;;;;5051019;28;20056;-55
2023/04/02 06:45:33;;;;;;;4.40;1.80;;;7.50;91.50;;;;;;5051086;28;20017;-51
2023/04/02 06:48:01;;;;;;;2.08;1.83;;;7.50;92.10;;;;;;5050864;28;20100;-55
2023/04/02 06:50:34;;;;;;;4.05;1.85;;;7.50;93.10;;;;;;5051104;28;20383;-55
2023/04/02 06:53:08;;;;;;;4.55;2.10;;;7.50;93.20;;;;;;5050910;28;20108;-54
2023/04/02 06:55:37;;;;;;;2.05;1.80;;;7.50;92.20;;;;;;5050757;28;20037;-56
2023/04/02 06:58:02;;;;;;;1.85;1.73;;;7.50;92.40;;;;;;5051131;28;20033;-55
2023/04/02 07:00:45;;;;;;;2.90;1.67;;;7.50;92.90;;;;;;5051355;28;20103;-58
2023/04/02 07:03:15;;;;;;;5.10;1.70;;;7.50;92.50;;;;;;5051087;28;20034;-52
2023/04/02 07:05:41;;;;;;;2.33;1.77;;;7.60;91.90;;;;;;5051028;28;20087;-57
2023/04/02 07:08:07;;;;;;;3.15;1.90;;;7.60;93.30;;;;;;5051239;28;20037;-51
2023/04/02 07:10:33;;;;;;;1.90;1.67;;;7.70;93.00;;;;;;5050694;28;20024;-55
2023/04/02 07:13:01;;;;;;;6.18;1.92;;;7.70;91.20;;;;;;5050563;28;20049;-52
2023/04/02 07:15:27;;;;;;;3.00;2.25;;;7.70;92.10;;;;;;5051253;28;20057;-54
2023/04/02 07:17:55;;;;;;;2.58;2.08;;;7.70;92.10;;;;;;5050343;28;20165;-55
2023/04/02 07:20:36;;;;;;;4.03;2.78;;;7.70;91.70;;;;;;5050404;28;20450;-55
2023/04/02 07:23:02;;;;;;;4.03;3.65;;;7.60;92.60;;;;;;5051392;28;20079;-55
2023/04/02 07:25:27;;;;;;;3.58;2.45;;;7.70;92.00;;;;;;5054280;28;20341;-57
2023/04/02 07:27:54;;;;;;;2.38;2.17;;;7.80;93.30;;;;;;5053547;28;20154;-55
2023/04/02 07:30:20;;;;;;;3.15;2.33;;;7.80;93.00;;;;;;5054484;28;20392;-57
2023/04/02 07:32:45;;;;;;;15.90;9.00;;;7.90;92.90;;;;;;5054462;28;20033;-57
2023/04/02 07:35:11;;;;;;;5.93;3.95;;;7.90;90.40;;;;;;5054441;28;20048;-55
2023/04/02 07:37:37;;;;;;;6.70;3.63;;;7.90;91.50;;;;;;5054632;28;20021;-56
2023/04/02 07:40:05;;;;;;;32.13;12.43;;;7.90;91.70;;;;;;5054308;28;20021;-58
2023/04/02 07:42:31;;;;;;;6.72;4.20;;;7.90;92.10;;;;;;5054187;28;20356;-54
2023/04/02 07:44:57;;;;;;;3.13;1.88;;;7.90;91.50;;;;;;5054051;28;20021;-55
2023/04/02 07:47:22;;;;;;;2.25;2.05;;;8.00;91.40;;;;;;5054175;28;20344;-55
2023/04/02 07:49:48;;;;;;;6.35;3.20;;;8.10;90.10;;;;;;5054221;28;20573;-54
2023/04/02 07:52:14;;;;;;;5.43;2.22;;;7.90;87.60;;;;;;5054246;28;20091;-55
2023/04/02 07:54:40;;;;;;;2.88;2.15;;;8.00;89.20;;;;;;5054756;28;20052;-56
2023/04/02 07:57:05;;;;;;;3.05;2.10;;;8.00;89.00;;;;;;5054075;28;20131;-56
2023/04/02 07:59:31;;;;;;;3.45;2.35;;;8.00;91.70;;;;;;5054252;28;20139;-52
2023/04/02 08:02:03;;;;;;;5.80;2.60;;;8.10;91.20;;;;;;5054078;28;20021;-55
2023/04/02 08:04:28;;;;;;;2.70;2.28;;;8.00;91.30;;;;;;5053933;28;20017;-53
2023/04/02 08:06:54;;;;;;;4.63;3.05;;;8.00;91.50;;;;;;5053782;28;20031;-53
2023/04/02 08:09:20;;;;;;;6.00;4.10;;;8.10;91.00;;;;;;5053885;28;20483;-56
2023/04/02 08:11:46;;;;;;;6.68;3.72;;;8.00;91.70;;;;;;5053758;28;20349;-58
2023/04/02 08:14:11;;;;;;;6.30;3.85;;;8.10;92.00;;;;;;5053665;28;20029;-55
2023/04/02 08:16:54;;;;;;;3.90;3.00;;;8.10;89.80;;;;;;5053971;28;20029;-58
2023/04/02 08:19:20;;;;;;;6.83;4.73;;;8.10;90.50;;;;;;5053948;28;20108;-57
2023/04/02 08:21:49;;;;;;;5.00;2.85;;;8.10;91.20;;;;;;5053610;28;20489;-55
2023/04/02 08:24:17;;;;;;;3.53;2.03;;;8.20;90.50;;;;;;5053476;28;20090;-55
2023/04/02 08:26:44;;;;;;;6.90;3.88;;;8.30;82.40;;;;;;5053664;28;20108;-57
2023/04/02 08:29:10;;;;;;;10.15;5.63;;;8.20;86.20;;;;;;5053597;28;20040;-55
2023/04/02 08:31:36;;;;;;;5.70;2.85;;;8.20;91.60;;;;;;5053635;28;20130;-55
2023/04/02 08:34:02;;;;;;;3.38;2.83;;;8.30;90.20;;;;;;5052691;28;20480;-57
2023/04/02 08:36:35;;;;;;;9.45;4.75;;;8.40;88.90;;;;;;5053451;28;20052;-58
2023/04/02 08:39:03;;;;;;;3.58;2.80;;;8.30;83.20;;;;;;5053450;28;20032;-56
2023/04/02 08:41:33;;;;;;;5.30;2.78;;;8.40;83.00;;;;;;5053403;28;20032;-57
2023/04/02 08:44:23;;;;;;;3.60;2.15;;;8.30;84.90;;;;;;5052975;28;20057;-57
2023/04/02 08:47:16;;;;;;;3.67;2.10;;;8.40;85.00;;;;;;5053261;28;20053;-58
2023/04/02 08:49:45;;;;;;;2.10;1.50;;;8.30;85.40;;;;;;5053279;28;20036;-55
2023/04/02 08:52:32;;;;;;;3.00;2.20;;;8.30;81.10;;;;;;5052914;28;20017;-57
2023/04/02 08:55:01;;;;;;;6.13;2.17;;;8.30;82.90;;;;;;5053107;28;20025;-59
2023/04/02 08:57:42;;;;;;;4.30;2.85;;;8.30;85.10;;;;;;5052951;28;20028;-58
2023/04/02 09:00:35;;;;;;;4.47;2.80;;;8.30;85.50;;;;;;5052946;28;20102;-57
2023/04/02 09:03:28;;;;;;;4.00;2.15;;;8.30;83.40;;;;;;5052802;28;20070;-53
2023/04/02 09:05:55;;;;;;;3.20;2.90;;;8.40;82.80;;;;;;5049023;28;20464;-55
2023/04/02 09:08:23;;;;;;;3.35;2.60;;;8.30;80.20;;;;;;5052972;28;20033;-55
2023/04/02 09:11:04;;;;;;;4.88;3.00;;;8.30;85.30;;;;;;5052819;28;20034;-55
2023/04/02 09:13:33;;;;;;;6.07;4.35;;;8.30;87.80;;;;;;5052727;28;20045;-57
2023/04/02 09:16:11;;;;;;;5.15;3.60;;;8.30;85.90;;;;;;5052649;28;20021;-57
2023/04/02 09:18:38;;;;;;;5.15;3.22;;;8.40;81.80;;;;;;5052584;28;20400;-57
2023/04/02 09:21:39;;;;;;;5.82;3.72;;;8.60;81.10;;;;;;5052182;28;20074;-55
2023/04/02 09:24:05;;;;;;;2.78;2.28;;;8.80;83.30;;;;;;5051904;28;20425;-55
2023/04/02 09:26:32;;;;;;;3.97;2.03;;;8.90;75.60;;;;;;5052065;28;20017;-53
2023/04/02 09:29:07;;;;;;;2.85;2.22;;;9.20;67.80;;;;;;5051998;28;20056;-58
2023/04/02 09:31:58;;;;;;;3.17;2.70;;;9.40;68.60;;;;;;5052547;28;20058;-58
2023/04/02 09:34:32;;;;;;;4.55;2.42;;;9.50;68.10;;;;;;5051602;28;20544;-53
2023/04/02 09:37:14;;;;;;;2.20;1.92;;;9.30;72.10;;;;;;5052351;28;20023;-59
2023/04/02 09:39:40;;;;;;;3.80;2.22;;;9.20;53.70;;;;;;5052487;28;20023;-57
2023/04/02 09:42:33;;;;;;;3.67;1.90;;;9.10;78.60;;;;;;5052426;28;20447;-50
2023/04/02 09:45:19;;;;;;;3.72;2.10;;;9.10;63.00;;;;;;5050784;28;20811;-54
2023/04/02 09:47:45;;;;;;;5.07;3.00;;;9.10;69.70;;;;;;5052165;28;20103;-57
2023/04/02 09:50:34;;;;;;;4.00;2.15;;;8.80;67.20;;;;;;5051347;28;20476;-58
2023/04/02 09:53:43;;;;;;;3.97;3.03;;;8.90;77.30;;;;;;5050925;28;20029;-55
2023/04/02 09:56:13;;;;;;;2.92;2.65;;;9.00;79.60;;;;;;5051277;28;20045;-54
2023/04/02 09:58:40;;;;;;;2.42;2.10;;;9.20;75.30;;;;;;5052048;28;20086;-52
2023/04/02 10:01:25;;;;;;;2.65;1.90;;;9.40;57.40;;;;;;5051873;28;20625;-54
2023/04/02 10:03:51;;;;;;;2.95;2.72;;;9.20;57.90;;;;;;5051673;28;20025;-56
2023/04/02 10:06:17;;;;;;;2.35;2.00;;;9.40;37.30;;;;;;5051730;28;20450;-54
2023/04/02 10:08:44;;;;;;;2.20;2.10;;;9.20;51.20;;;;;;5051785;28;20028;-56
2023/04/02 10:11:30;;;;;;;2.50;2.30;;;9.30;46.60;;;;;;5051737;28;20025;-55
2023/04/02 10:13:59;;;;;;;1.67;1.58;;;9.40;47.50;;;;;;5051525;28;20033;-55
2023/04/02 10:16:42;;;;;;;1.63;1.52;;;9.10;34.30;;;;;;5050524;28;20107;-58
2023/04/02 10:19:12;;;;;;;1.60;1.50;;;8.90;56.70;;;;;;5051495;28;20056;-53
2023/04/02 10:21:40;;;;;;;4.38;1.90;;;9.00;47.40;;;;;;5051447;28;20029;-56
2023/04/02 10:24:14;;;;;;;1.77;1.23;;;9.30;50.10;;;;;;5051259;28;20025;-58
2023/04/02 10:27:01;;;;;;;1.05;1.05;;;9.30;27.00;;;;;;5051495;28;20048;-56
2023/04/02 10:29:37;;;;;;;1.60;1.30;;;9.40;1.00;;;;;;5051271;28;20107;-54
2023/04/02 10:32:44;;;;;;;1.80;1.50;;;9.30;35.60;;;;;;5051302;28;20025;-58
2023/04/02 10:35:21;;;;;;;4.97;3.10;;;9.00;35.30;;;;;;5051117;28;20029;-59
2023/04/02 10:38:06;;;;;;;1.60;1.50;;;8.90;51.80;;;;;;5051453;28;20040;-59
2023/04/02 10:40:36;;;;;;;8.13;3.67;;;8.70;44.10;;;;;;5050068;28;20043;-57
2023/04/02 10:43:38;;;;;;;5.28;2.70;;;8.70;39.10;;;;;;5051163;28;20025;-57
2023/04/02 10:46:32;;;;;;;4.00;1.40;;;8.70;60.00;;;;;;5051249;28;20036;-54
2023/04/02 10:49:23;;;;;;;2.25;1.40;;;8.90;37.50;;;;;;5051198;28;20062;-54
2023/04/02 10:52:09;;;;;;;2.58;1.20;;;8.70;38.80;;;;;;5051296;28;20411;-54
2023/04/02 10:54:51;;;;;;;1.23;1.13;;;8.90;49.10;;;;;;5050060;28;20021;-56
2023/04/02 10:57:19;;;;;;;6.78;3.58;;;8.80;41.00;;;;;;5051615;28;20029;-55
2023/04/02 11:00:15;;;;;;;4.25;2.50;;;9.00;56.90;;;;;;5054804;28;20064;-55
2023/04/02 11:03:05;;;;;;;1.80;1.70;;;9.00;58.30;;;;;;5054470;28;20029;-54
2023/04/02 11:05:52;;;;;;;1.63;1.52;;;8.80;67.00;;;;;;5054422;28;20071;-55
2023/04/02 11:08:20;;;;;;;11.48;3.40;;;9.10;49.70;;;;;;5054128;28;20468;-57
2023/04/02 11:11:02;;;;;;;3.72;2.33;;;9.20;38.30;;;;;;5053971;28;20108;-55
2023/04/02 11:13:35;;;;;;;1.20;1.20;;;9.10;98.40;;;;;;5053539;28;20048;-55
2023/04/02 11:16:02;;;;;;;4.00;1.98;;;9.00;99.90;;;;;;5054973;28;20417;-56
2023/04/02 11:18:34;;;;;;;12.95;4.18;;;8.90;99.90;;;;;;5055175;28;20065;-57
2023/04/02 11:21:37;;;;;;;23.48;7.82;;;8.90;99.90;;;;;;5054997;28;20471;-57
2023/04/02 11:24:04;;;;;;;1.27;1.23;;;8.90;99.90;;;;;;5054665;28;20048;-56
2023/04/02 11:26:36;;;;;;;1.33;1.20;;;9.00;99.90;;;;;;5054776;28;20017;-55
2023/04/02 11:29:20;;;;;;;1.50;1.40;;;8.90;99.90;;;;;;5054144;28;20037;-58
2023/04/02 11:31:47;;;;;;;1.88;1.65;;;8.80;99.90;;;;;;5053903;28;20039;-54
2023/04/02 11:34:40;;;;;;;58.97;15.65;;;8.70;99.90;;;;;;5054080;28;20028;-56
2023/04/02 11:37:29;;;;;;;5.00;2.20;;;8.70;99.90;;;;;;5053326;28;20036;-56
2023/04/02 11:39:58;;;;;;;1.25;1.20;;;8.60;99.90;;;;;;5054286;28;20067;-56
2023/04/02 11:42:35;;;;;;;31.23;8.38;;;8.40;99.90;;;;;;5054640;28;20029;-53
2023/04/02 11:45:22;;;;;;;1.25;1.25;;;8.40;99.90;;;;;;5054417;28;20504;-54
2023/04/02 11:48:17;;;;;;;1.70;1.60;;;8.30;99.90;;;;;;5054469;28;20053;-55
2023/04/02 11:50:44;;;;;;;1.40;1.30;;;8.20;99.90;;;;;;5053739;28;20029;-56
2023/04/02 11:53:10;;;;;;;1.30;1.30;;;8.10;99.90;;;;;;5054216;28;20039;-55
2023/04/02 11:55:42;;;;;;;1.42;1.35;;;8.20;99.90;;;;;;5053122;28;20021;-56
2023/04/02 11:58:45;;;;;;;2.92;1.33;;;8.00;99.90;;;;;;5054185;28;20075;-52
2023/04/02 12:01:19;;;;;;;6.53;1.50;;;8.00;99.90;;;;;;5054095;28;20025;-55
2023/04/02 12:03:54;;;;;;;3.60;1.75;;;8.00;99.90;;;;;;5054096;28;20137;-53
2023/04/02 12:06:58;;;;;;;3.05;1.40;;;7.80;99.90;;;;;;5054171;28;20104;-54
2023/04/02 12:09:26;;;;;;;;;;;7.90;99.90;;;;;;5053227;28;20053;-57
2023/04/02 12:11:58;;;;;;;1.48;1.40;;;8.10;99.90;;;;;;5053983;28;19985;-56
2023/04/02 12:14:42;;;;;;;1.85;1.75;;;8.20;99.90;;;;;;5053894;28;20044;-56
2023/04/02 12:17:23;;;;;;;;;;;8.20;99.90;;;;;;5054265;28;20112;-55
2023/04/02 12:19:51;;;;;;;1.10;1.10;;;8.40;99.90;;;;;;5053715;28;19905;-55
2023/04/02 12:22:24;;;;;;;1.08;1.08;;;8.40;99.90;;;;;;5053846;28;20578;-56
2023/04/02 12:24:55;;;;;;;1.20;1.20;;;8.20;99.90;;;;;;5053590;28;20059;-56
2023/04/02 12:27:26;;;;;;;1.45;1.30;;;8.20;99.90;;;;;;5052437;28;20594;-56
2023/04/02 12:29:53;;;;;;;1.50;1.23;;;8.40;99.90;;;;;;5053578;28;20052;-52
2023/04/02 12:32:27;;;;;;;1.92;1.52;;;8.30;99.90;;;;;;5053900;28;20326;-57
2023/04/02 12:34:56;;;;;;;8.32;3.40;;;8.40;99.90;;;;;;5052128;28;20086;-55
2023/04/02 12:37:27;;;;;;;1.65;1.40;;;8.50;99.90;;;;;;5053545;28;20029;-56
2023/04/02 12:39:58;;;;;;;45.72;13.00;;;8.60;99.90;;;;;;5052083;28;20025;-55
2023/04/02 12:42:36;;;;;;;6.25;2.90;;;8.40;99.90;;;;;;5053514;28;20027;-55
2023/04/02 12:45:05;;;;;;;3.15;2.10;;;8.60;99.90;;;;;;5053037;28;20029;-57
2023/04/02 12:47:31;;;;;;;1.48;1.38;;;8.50;99.90;;;;;;5053300;28;20025;-54
2023/04/02 12:50:00;;;;;;;2.13;1.92;;;8.50;99.90;;;;;;5053173;28;20100;-51
2023/04/02 12:52:28;;;;;;;1.40;1.33;;;8.50;99.90;;;;;;5053325;28;20021;-53
2023/04/02 12:54:56;;;;;;;1.65;1.50;;;8.60;99.90;;;;;;5052996;28;20021;-54
2023/04/02 12:57:24;;;;;;;2.53;1.55;;;8.60;99.90;;;;;;5053128;28;20027;-54
2023/04/02 12:59:52;;;;;;;1.45;1.35;;;8.50;99.90;;;;;;5052957;28;20027;-56
2023/04/02 13:02:19;;;;;;;1.50;1.40;;;8.60;99.90;;;;;;5053067;28;20022;-57
2023/04/02 13:04:50;;;;;;;3.20;1.45;;;8.50;99.90;;;;;;5052949;28;20108;-58
2023/04/02 13:07:18;;;;;;;1.60;1.50;;;8.60;99.90;;;;;;5053050;28;20486;-53
2023/04/02 13:09:50;;;;;;;1.60;1.50;;;8.60;99.90;;;;;;5052910;28;20037;-55
2023/04/02 13:12:39;;;;;;;1.55;1.45;;;8.70;99.90;;;;;;5052650;28;20048;-54
2023/04/02 13:15:18;;;;;;;1.20;1.20;;;8.70;99.90;;;;;;5052150;28;20045;-59
2023/04/02 13:17:47;;;;;;;1.60;1.50;;;8.70;99.90;;;;;;5052871;28;20057;-58
2023/04/02 13:20:35;;;;;;;4.38;1.85;;;8.80;99.90;;;;;;5052055;28;20028;-55
2023/04/02 13:23:21;;;;;;;6.40;1.65;;;8.90;99.90;;;;;;5052458;28;20063;-56
2023/04/02 13:25:47;;;;;;;3.83;2.85;;;8.90;99.90;;;;;;5052616;28;20025;-55
2023/04/02 13:28:12;;;;;;;1.60;1.50;;;9.10;99.90;;;;;;5052456;28;20075;-52
2023/04/02 13:30:38;;;;;;;1.73;1.63;;;9.10;99.90;;;;;;5052342;28;20380;-52
2023/04/02 13:33:04;;;;;;;1.30;1.30;;;9.00;99.90;;;;;;5052141;28;20025;-56
2023/04/02 13:35:30;;;;;;;1.95;1.83;;;8.90;99.90;;;;;;5052574;28;20021;-53
2023/04/02 13:37:55;;;;;;;1.70;1.60;;;9.10;99.90;;;;;;5052150;28;20025;-56
2023/04/02 13:40:21;;;;;;;1.60;1.50;;;9.00;99.90;;;;;;5052283;28;20079;-58
2023/04/02 13:42:48;;;;;;;1.63;1.52;;;9.00;99.90;;;;;;5052219;28;20017;-59
2023/04/02 13:45:27;;;;;;;3.05;1.40;;;9.00;99.90;;;;;;5052084;28;20025;-53